sensor_id;sensor_type;location;lat;lon;timestamp;P1;durP1;ratioP1;P2;durP2;ratioP2
55202;SDS011;41077;52.956;6.796;2022-12-05T00:03:44;39.40;;;25.27;;
55202;SDS011;41077;52.956;6.796;2022-12-05T00:06:10;42.75;;;24.88;;
55202;SDS011;41077;52.956;6.796;2022-12-05T00:08:36;42.35;;;24.70;;
55202;SDS011;41077;52.956;6.796;2022-12-05T00:11:03;41.35;;;26.45;;
55202;SDS011;41077;52.956;6.796;2022-12-05T00:13:28;40.17;;;24.90;;
55202;SDS011;41077;52.956;6.796;2022-12-05T00:15:54;38.88;;;25.52;;
55202;SDS011;41077;52.956;6.796;2022-12-05T00:18:19;43.10;;;26.42;;
55202;SDS011;41077;52.956;6.796;2022-12-05T00:20:46;42.92;;;25.58;;
55202;SDS011;41077;52.956;6.796;2022-12-05T00:23:12;40.50;;;24.60;;
55202;SDS011;41077;52.956;6.796;2022-12-05T00:25:38;40.20;;;25.25;;
55202;SDS011;41077;52.956;6.796;2022-12-05T00:28:04;37.28;;;24.42;;
55202;SDS011;41077;52.956;6.796;2022-12-05T00:30:30;40.95;;;24.40;;
55202;SDS011;41077;52.956;6.796;2022-12-05T00:32:56;41.95;;;25.27;;
55202;SDS011;41077;52.956;6.796;2022-12-05T00:35:23;42.65;;;26.13;;
55202;SDS011;41077;52.956;6.796;2022-12-05T00:37:49;38.95;;;22.90;;
55202;SDS011;41077;52.956;6.796;2022-12-05T00:40:14;43.42;;;26.70;;
55202;SDS011;41077;52.956;6.796;2022-12-05T00:42:40;42.03;;;26.05;;
55202;SDS011;41077;52.956;6.796;2022-12-05T00:45:06;34.78;;;24.67;;
55202;SDS011;41077;52.956;6.796;2022-12-05T00:47:35;40.17;;;26.13;;
55202;SDS011;41077;52.956;6.796;2022-12-05T00:50:02;38.97;;;24.17;;
55202;SDS011;41077;52.956;6.796;2022-12-05T00:52:28;48.30;;;26.08;;
55202;SDS011;41077;52.956;6.796;2022-12-05T00:54:54;46.70;;;25.60;;
55202;SDS011;41077;52.956;6.796;2022-12-05T00:57:19;39.17;;;25.27;;
55202;SDS011;41077;52.956;6.796;2022-12-05T00:59:45;40.47;;;24.17;;
55202;SDS011;41077;52.956;6.796;2022-12-05T01:02:11;44.13;;;26.75;;
55202;SDS011;41077;52.956;6.796;2022-12-05T01:04:36;37.42;;;25.63;;
55202;SDS011;41077;52.956;6.796;2022-12-05T01:07:02;39.33;;;24.58;;
55202;SDS011;41077;52.956;6.796;2022-12-05T01:09:28;41.75;;;25.90;;
55202;SDS011;41077;52.956;6.796;2022-12-05T01:11:54;45.60;;;27.15;;
55202;SDS011;41077;52.956;6.796;2022-12-05T01:14:20;41.55;;;25.48;;
55202;SDS011;41077;52.956;6.796;2022-12-05T01:16:48;46.70;;;26.25;;
55202;SDS011;41077;52.956;6.796;2022-12-05T01:19:22;45.13;;;27.08;;
55202;SDS011;41077;52.956;6.796;2022-12-05T01:21:49;45.30;;;26.40;;
55202;SDS011;41077;52.956;6.796;2022-12-05T01:24:16;44.70;;;26.13;;
55202;SDS011;41077;52.956;6.796;2022-12-05T01:26:43;45.60;;;26.80;;
55202;SDS011;41077;52.956;6.796;2022-12-05T01:29:11;45.92;;;28.15;;
55202;SDS011;41077;52.956;6.796;2022-12-05T01:31:39;45.40;;;27.70;;
55202;SDS011;41077;52.956;6.796;2022-12-05T01:34:06;45.70;;;27.88;;
55202;SDS011;41077;52.956;6.796;2022-12-05T01:36:34;43.70;;;26.85;;
55202;SDS011;41077;52.956;6.796;2022-12-05T01:39:00;44.10;;;27.25;;
55202;SDS011;41077;52.956;6.796;2022-12-05T01:41:27;45.03;;;29.48;;
55202;SDS011;41077;52.956;6.796;2022-12-05T01:43:57;58.35;;;29.15;;
55202;SDS011;41077;52.956;6.796;2022-12-05T01:46:33;50.97;;;28.95;;
55202;SDS011;41077;52.956;6.796;2022-12-05T01:49:02;55.75;;;30.15;;
55202;SDS011;41077;52.956;6.796;2022-12-05T01:51:32;51.40;;;29.67;;
55202;SDS011;41077;52.956;6.796;2022-12-05T01:53:59;51.33;;;28.63;;
55202;SDS011;41077;52.956;6.796;2022-12-05T01:56:26;52.05;;;29.45;;
55202;SDS011;41077;52.956;6.796;2022-12-05T01:58:52;52.25;;;28.90;;
55202;SDS011;41077;52.956;6.796;2022-12-05T02:01:19;64.18;;;32.55;;
55202;SDS011;41077;52.956;6.796;2022-12-05T02:03:45;55.35;;;32.03;;
55202;SDS011;41077;52.956;6.796;2022-12-05T02:06:14;62.08;;;33.47;;
55202;SDS011;41077;52.956;6.796;2022-12-05T02:08:40;58.53;;;33.65;;
55202;SDS011;41077;52.956;6.796;2022-12-05T02:11:07;58.67;;;31.63;;
55202;SDS011;41077;52.956;6.796;2022-12-05T02:16:14;56.00;;;31.23;;
55202;SDS011;41077;52.956;6.796;2022-12-05T02:34:57;52.85;;;31.33;;
55202;SDS011;41077;52.956;6.796;2022-12-05T02:37:51;51.92;;;29.80;;
55202;SDS011;41077;52.956;6.796;2022-12-05T02:40:30;56.88;;;31.35;;
55202;SDS011;41077;52.956;6.796;2022-12-05T02:43:01;55.40;;;32.10;;
55202;SDS011;41077;52.956;6.796;2022-12-05T02:45:49;48.63;;;29.00;;
55202;SDS011;41077;52.956;6.796;2022-12-05T02:48:19;52.88;;;30.42;;
55202;SDS011;41077;52.956;6.796;2022-12-05T02:50:45;49.03;;;28.45;;
55202;SDS011;41077;52.956;6.796;2022-12-05T02:53:13;59.42;;;31.20;;
55202;SDS011;41077;52.956;6.796;2022-12-05T02:55:41;59.28;;;30.92;;
55202;SDS011;41077;52.956;6.796;2022-12-05T02:58:10;54.13;;;29.00;;
55202;SDS011;41077;52.956;6.796;2022-12-05T03:00:42;52.10;;;28.05;;
55202;SDS011;41077;52.956;6.796;2022-12-05T03:03:18;59.45;;;29.95;;
55202;SDS011;41077;52.956;6.796;2022-12-05T03:05:48;56.80;;;29.45;;
55202;SDS011;41077;52.956;6.796;2022-12-05T03:08:20;55.70;;;28.77;;
55202;SDS011;41077;52.956;6.796;2022-12-05T03:10:50;48.50;;;26.60;;
55202;SDS011;41077;52.956;6.796;2022-12-05T03:13:19;46.83;;;26.92;;
55202;SDS011;41077;52.956;6.796;2022-12-05T03:15:51;52.30;;;26.60;;
55202;SDS011;41077;52.956;6.796;2022-12-05T03:18:23;40.88;;;23.02;;
55202;SDS011;41077;52.956;6.796;2022-12-05T03:23:48;43.83;;;24.08;;
55202;SDS011;41077;52.956;6.796;2022-12-05T03:26:31;47.17;;;24.35;;
55202;SDS011;41077;52.956;6.796;2022-12-05T03:31:56;45.65;;;25.95;;
55202;SDS011;41077;52.956;6.796;2022-12-05T03:40:14;45.95;;;27.10;;
55202;SDS011;41077;52.956;6.796;2022-12-05T03:43:07;51.22;;;28.70;;
55202;SDS011;41077;52.956;6.796;2022-12-05T03:45:52;49.28;;;26.63;;
55202;SDS011;41077;52.956;6.796;2022-12-05T03:51:14;47.00;;;25.35;;
55202;SDS011;41077;52.956;6.796;2022-12-05T03:53:43;43.50;;;25.15;;
55202;SDS011;41077;52.956;6.796;2022-12-05T03:56:18;38.75;;;22.50;;
55202;SDS011;41077;52.956;6.796;2022-12-05T04:01:43;35.88;;;21.48;;
55202;SDS011;41077;52.956;6.796;2022-12-05T04:04:13;35.78;;;22.23;;
55202;SDS011;41077;52.956;6.796;2022-12-05T04:06:53;36.03;;;20.75;;
55202;SDS011;41077;52.956;6.796;2022-12-05T04:09:25;38.92;;;20.85;;
55202;SDS011;41077;52.956;6.796;2022-12-05T04:11:56;35.50;;;21.15;;
55202;SDS011;41077;52.956;6.796;2022-12-05T04:14:30;38.20;;;20.73;;
55202;SDS011;41077;52.956;6.796;2022-12-05T04:17:02;40.33;;;22.08;;
55202;SDS011;41077;52.956;6.796;2022-12-05T04:19:35;46.30;;;23.60;;
55202;SDS011;41077;52.956;6.796;2022-12-05T04:22:26;43.03;;;23.85;;
55202;SDS011;41077;52.956;6.796;2022-12-05T04:24:53;35.15;;;21.55;;
55202;SDS011;41077;52.956;6.796;2022-12-05T04:27:47;36.40;;;22.77;;
55202;SDS011;41077;52.956;6.796;2022-12-05T04:30:17;34.53;;;20.48;;
55202;SDS011;41077;52.956;6.796;2022-12-05T04:35:36;33.42;;;19.33;;
55202;SDS011;41077;52.956;6.796;2022-12-05T04:38:26;32.05;;;19.20;;
55202;SDS011;41077;52.956;6.796;2022-12-05T04:41:04;37.08;;;21.33;;
55202;SDS011;41077;52.956;6.796;2022-12-05T04:43:34;26.85;;;18.70;;
55202;SDS011;41077;52.956;6.796;2022-12-05T04:46:03;28.35;;;19.30;;
55202;SDS011;41077;52.956;6.796;2022-12-05T04:48:34;30.85;;;19.27;;
55202;SDS011;41077;52.956;6.796;2022-12-05T04:51:03;27.65;;;18.13;;
55202;SDS011;41077;52.956;6.796;2022-12-05T04:53:32;29.98;;;16.80;;
55202;SDS011;41077;52.956;6.796;2022-12-05T04:55:59;25.75;;;15.85;;
55202;SDS011;41077;52.956;6.796;2022-12-05T04:58:27;22.90;;;16.73;;
55202;SDS011;41077;52.956;6.796;2022-12-05T05:00:57;20.15;;;14.52;;
55202;SDS011;41077;52.956;6.796;2022-12-05T05:03:30;18.70;;;13.88;;
55202;SDS011;41077;52.956;6.796;2022-12-05T05:06:16;17.30;;;13.57;;
55202;SDS011;41077;52.956;6.796;2022-12-05T05:08:53;18.70;;;12.20;;
55202;SDS011;41077;52.956;6.796;2022-12-05T05:11:21;17.50;;;12.70;;
55202;SDS011;41077;52.956;6.796;2022-12-05T05:13:49;17.35;;;13.77;;
55202;SDS011;41077;52.956;6.796;2022-12-05T05:16:19;18.27;;;13.68;;
55202;SDS011;41077;52.956;6.796;2022-12-05T05:18:55;13.75;;;11.82;;
55202;SDS011;41077;52.956;6.796;2022-12-05T05:21:32;19.17;;;13.20;;
55202;SDS011;41077;52.956;6.796;2022-12-05T05:23:59;16.85;;;12.98;;
55202;SDS011;41077;52.956;6.796;2022-12-05T05:26:25;14.95;;;12.27;;
55202;SDS011;41077;52.956;6.796;2022-12-05T05:28:52;13.23;;;11.80;;
55202;SDS011;41077;52.956;6.796;2022-12-05T05:31:18;14.27;;;11.63;;
55202;SDS011;41077;52.956;6.796;2022-12-05T05:33:49;13.60;;;11.68;;
55202;SDS011;41077;52.956;6.796;2022-12-05T05:36:15;14.73;;;11.90;;
55202;SDS011;41077;52.956;6.796;2022-12-05T05:38:43;15.50;;;12.82;;
55202;SDS011;41077;52.956;6.796;2022-12-05T05:41:14;18.17;;;13.32;;
55202;SDS011;41077;52.956;6.796;2022-12-05T05:43:43;14.93;;;12.23;;
55202;SDS011;41077;52.956;6.796;2022-12-05T05:46:09;14.43;;;12.10;;
55202;SDS011;41077;52.956;6.796;2022-12-05T05:48:35;14.23;;;12.45;;
55202;SDS011;41077;52.956;6.796;2022-12-05T05:51:02;17.42;;;12.65;;
55202;SDS011;41077;52.956;6.796;2022-12-05T05:53:28;14.20;;;11.88;;
55202;SDS011;41077;52.956;6.796;2022-12-05T05:55:54;13.82;;;11.60;;
55202;SDS011;41077;52.956;6.796;2022-12-05T05:58:20;16.02;;;12.68;;
55202;SDS011;41077;52.956;6.796;2022-12-05T06:00:46;21.95;;;12.45;;
55202;SDS011;41077;52.956;6.796;2022-12-05T06:03:11;18.48;;;13.35;;
55202;SDS011;41077;52.956;6.796;2022-12-05T06:05:37;19.30;;;13.38;;
55202;SDS011;41077;52.956;6.796;2022-12-05T06:08:03;16.70;;;12.63;;
55202;SDS011;41077;52.956;6.796;2022-12-05T06:10:29;16.52;;;12.68;;
55202;SDS011;41077;52.956;6.796;2022-12-05T06:12:55;17.15;;;12.38;;
55202;SDS011;41077;52.956;6.796;2022-12-05T06:15:21;17.10;;;12.95;;
55202;SDS011;41077;52.956;6.796;2022-12-05T06:17:47;15.52;;;11.98;;
55202;SDS011;41077;52.956;6.796;2022-12-05T06:20:13;13.48;;;10.95;;
55202;SDS011;41077;52.956;6.796;2022-12-05T06:22:39;17.13;;;11.20;;
55202;SDS011;41077;52.956;6.796;2022-12-05T06:25:05;12.88;;;11.15;;
55202;SDS011;41077;52.956;6.796;2022-12-05T06:27:31;16.77;;;10.73;;
55202;SDS011;41077;52.956;6.796;2022-12-05T06:29:58;15.38;;;11.63;;
55202;SDS011;41077;52.956;6.796;2022-12-05T06:32:24;14.73;;;11.10;;
55202;SDS011;41077;52.956;6.796;2022-12-05T06:34:51;13.18;;;11.18;;
55202;SDS011;41077;52.956;6.796;2022-12-05T06:37:17;14.00;;;10.77;;
55202;SDS011;41077;52.956;6.796;2022-12-05T06:39:42;14.15;;;11.38;;
55202;SDS011;41077;52.956;6.796;2022-12-05T06:42:08;15.23;;;12.05;;
55202;SDS011;41077;52.956;6.796;2022-12-05T06:44:34;16.27;;;12.23;;
55202;SDS011;41077;52.956;6.796;2022-12-05T06:46:59;19.15;;;11.95;;
55202;SDS011;41077;52.956;6.796;2022-12-05T06:49:25;16.10;;;11.73;;
55202;SDS011;41077;52.956;6.796;2022-12-05T06:51:56;15.95;;;12.63;;
55202;SDS011;41077;52.956;6.796;2022-12-05T06:54:25;16.02;;;12.43;;
55202;SDS011;41077;52.956;6.796;2022-12-05T06:56:50;16.13;;;12.13;;
55202;SDS011;41077;52.956;6.796;2022-12-05T06:59:16;16.40;;;11.52;;
55202;SDS011;41077;52.956;6.796;2022-12-05T07:01:41;13.85;;;11.63;;
55202;SDS011;41077;52.956;6.796;2022-12-05T07:04:15;16.77;;;12.82;;
55202;SDS011;41077;52.956;6.796;2022-12-05T07:06:48;15.50;;;11.93;;
55202;SDS011;41077;52.956;6.796;2022-12-05T07:09:14;17.50;;;12.15;;
55202;SDS011;41077;52.956;6.796;2022-12-05T07:11:41;15.82;;;12.63;;
55202;SDS011;41077;52.956;6.796;2022-12-05T07:14:06;19.10;;;12.55;;
55202;SDS011;41077;52.956;6.796;2022-12-05T07:16:33;16.88;;;11.98;;
55202;SDS011;41077;52.956;6.796;2022-12-05T07:18:59;18.70;;;12.23;;
55202;SDS011;41077;52.956;6.796;2022-12-05T07:21:25;19.20;;;12.13;;
55202;SDS011;41077;52.956;6.796;2022-12-05T07:23:51;20.52;;;12.18;;
55202;SDS011;41077;52.956;6.796;2022-12-05T07:26:20;18.17;;;12.23;;
55202;SDS011;41077;52.956;6.796;2022-12-05T07:28:47;16.70;;;13.10;;
55202;SDS011;41077;52.956;6.796;2022-12-05T07:31:15;18.58;;;12.55;;
55202;SDS011;41077;52.956;6.796;2022-12-05T07:33:42;17.65;;;12.70;;
55202;SDS011;41077;52.956;6.796;2022-12-05T07:36:10;20.08;;;12.70;;
55202;SDS011;41077;52.956;6.796;2022-12-05T07:38:39;15.70;;;12.65;;
55202;SDS011;41077;52.956;6.796;2022-12-05T07:41:07;13.57;;;12.00;;
55202;SDS011;41077;52.956;6.796;2022-12-05T07:43:43;18.05;;;11.55;;
55202;SDS011;41077;52.956;6.796;2022-12-05T07:46:09;17.08;;;12.65;;
55202;SDS011;41077;52.956;6.796;2022-12-05T07:48:38;23.65;;;13.07;;
55202;SDS011;41077;52.956;6.796;2022-12-05T07:51:05;19.20;;;13.48;;
55202;SDS011;41077;52.956;6.796;2022-12-05T07:53:31;25.65;;;13.10;;
55202;SDS011;41077;52.956;6.796;2022-12-05T07:55:58;22.42;;;13.65;;
55202;SDS011;41077;52.956;6.796;2022-12-05T07:58:25;22.45;;;14.23;;
55202;SDS011;41077;52.956;6.796;2022-12-05T08:00:52;20.02;;;13.70;;
55202;SDS011;41077;52.956;6.796;2022-12-05T08:03:17;20.13;;;13.88;;
55202;SDS011;41077;52.956;6.796;2022-12-05T08:05:43;26.17;;;14.52;;
55202;SDS011;41077;52.956;6.796;2022-12-05T08:08:08;22.13;;;14.30;;
55202;SDS011;41077;52.956;6.796;2022-12-05T08:10:34;22.25;;;13.75;;
55202;SDS011;41077;52.956;6.796;2022-12-05T08:13:00;27.98;;;14.82;;
55202;SDS011;41077;52.956;6.796;2022-12-05T08:15:25;21.80;;;13.40;;
55202;SDS011;41077;52.956;6.796;2022-12-05T08:17:51;25.55;;;13.73;;
55202;SDS011;41077;52.956;6.796;2022-12-05T08:20:17;22.60;;;14.13;;
55202;SDS011;41077;52.956;6.796;2022-12-05T08:22:42;22.00;;;13.02;;
55202;SDS011;41077;52.956;6.796;2022-12-05T08:25:08;18.67;;;13.30;;
55202;SDS011;41077;52.956;6.796;2022-12-05T08:27:34;28.35;;;14.60;;
55202;SDS011;41077;52.956;6.796;2022-12-05T08:30:00;31.60;;;13.77;;
55202;SDS011;41077;52.956;6.796;2022-12-05T08:32:25;19.60;;;13.10;;
55202;SDS011;41077;52.956;6.796;2022-12-05T08:34:51;19.10;;;13.05;;
55202;SDS011;41077;52.956;6.796;2022-12-05T08:37:17;18.95;;;13.00;;
55202;SDS011;41077;52.956;6.796;2022-12-05T08:39:43;20.08;;;13.50;;
55202;SDS011;41077;52.956;6.796;2022-12-05T08:42:09;21.65;;;12.98;;
55202;SDS011;41077;52.956;6.796;2022-12-05T08:44:34;21.13;;;14.25;;
55202;SDS011;41077;52.956;6.796;2022-12-05T08:47:00;21.73;;;13.70;;
55202;SDS011;41077;52.956;6.796;2022-12-05T08:49:26;23.05;;;15.00;;
55202;SDS011;41077;52.956;6.796;2022-12-05T08:51:52;23.88;;;15.20;;
55202;SDS011;41077;52.956;6.796;2022-12-05T08:54:18;19.15;;;13.48;;
55202;SDS011;41077;52.956;6.796;2022-12-05T08:56:43;22.45;;;14.13;;
55202;SDS011;41077;52.956;6.796;2022-12-05T08:59:09;19.90;;;12.70;;
55202;SDS011;41077;52.956;6.796;2022-12-05T09:01:35;20.40;;;12.85;;
55202;SDS011;41077;52.956;6.796;2022-12-05T09:04:03;23.52;;;13.10;;
55202;SDS011;41077;52.956;6.796;2022-12-05T09:06:30;22.63;;;13.55;;
55202;SDS011;41077;52.956;6.796;2022-12-05T09:08:57;22.13;;;13.20;;
55202;SDS011;41077;52.956;6.796;2022-12-05T09:11:25;24.52;;;14.85;;
55202;SDS011;41077;52.956;6.796;2022-12-05T09:13:55;24.15;;;14.00;;
55202;SDS011;41077;52.956;6.796;2022-12-05T09:16:22;17.88;;;13.32;;
55202;SDS011;41077;52.956;6.796;2022-12-05T09:18:50;20.70;;;13.25;;
55202;SDS011;41077;52.956;6.796;2022-12-05T09:21:17;18.30;;;13.18;;
55202;SDS011;41077;52.956;6.796;2022-12-05T09:23:54;19.38;;;13.32;;
55202;SDS011;41077;52.956;6.796;2022-12-05T09:26:22;23.23;;;14.05;;
55202;SDS011;41077;52.956;6.796;2022-12-05T09:28:49;21.65;;;12.85;;
55202;SDS011;41077;52.956;6.796;2022-12-05T09:31:17;21.67;;;13.68;;
55202;SDS011;41077;52.956;6.796;2022-12-05T09:33:47;22.90;;;14.00;;
55202;SDS011;41077;52.956;6.796;2022-12-05T09:36:20;22.38;;;13.63;;
55202;SDS011;41077;52.956;6.796;2022-12-05T09:38:50;22.15;;;13.60;;
55202;SDS011;41077;52.956;6.796;2022-12-05T09:49:53;17.27;;;13.30;;
55202;SDS011;41077;52.956;6.796;2022-12-05T09:52:24;21.23;;;11.75;;
55202;SDS011;41077;52.956;6.796;2022-12-05T09:55:02;19.92;;;13.35;;
55202;SDS011;41077;52.956;6.796;2022-12-05T09:57:35;25.25;;;13.20;;
55202;SDS011;41077;52.956;6.796;2022-12-05T10:00:09;19.38;;;13.63;;
55202;SDS011;41077;52.956;6.796;2022-12-05T10:02:39;21.45;;;13.00;;
55202;SDS011;41077;52.956;6.796;2022-12-05T10:05:14;27.23;;;14.57;;
55202;SDS011;41077;52.956;6.796;2022-12-05T10:10:24;19.85;;;13.43;;
55202;SDS011;41077;52.956;6.796;2022-12-05T10:15:47;24.52;;;13.52;;
55202;SDS011;41077;52.956;6.796;2022-12-05T10:24:14;21.52;;;13.63;;
55202;SDS011;41077;52.956;6.796;2022-12-05T10:26:48;21.55;;;13.23;;
55202;SDS011;41077;52.956;6.796;2022-12-05T10:29:22;23.65;;;14.40;;
55202;SDS011;41077;52.956;6.796;2022-12-05T10:32:02;25.73;;;13.98;;
55202;SDS011;41077;52.956;6.796;2022-12-05T10:34:44;20.23;;;13.63;;
55202;SDS011;41077;52.956;6.796;2022-12-05T10:37:17;20.42;;;12.57;;
55202;SDS011;41077;52.956;6.796;2022-12-05T10:39:45;27.37;;;13.63;;
55202;SDS011;41077;52.956;6.796;2022-12-05T10:42:13;22.10;;;13.63;;
55202;SDS011;41077;52.956;6.796;2022-12-05T10:44:41;22.05;;;13.77;;
55202;SDS011;41077;52.956;6.796;2022-12-05T10:47:08;22.95;;;14.13;;
55202;SDS011;41077;52.956;6.796;2022-12-05T10:49:35;22.38;;;13.43;;
55202;SDS011;41077;52.956;6.796;2022-12-05T10:52:02;23.85;;;13.82;;
55202;SDS011;41077;52.956;6.796;2022-12-05T10:54:29;24.50;;;13.60;;
55202;SDS011;41077;52.956;6.796;2022-12-05T10:56:59;20.17;;;13.57;;
55202;SDS011;41077;52.956;6.796;2022-12-05T10:59:41;21.98;;;14.45;;
55202;SDS011;41077;52.956;6.796;2022-12-05T11:02:17;17.98;;;13.18;;
55202;SDS011;41077;52.956;6.796;2022-12-05T11:04:48;26.30;;;13.13;;
55202;SDS011;41077;52.956;6.796;2022-12-05T11:10:03;24.25;;;13.18;;
55202;SDS011;41077;52.956;6.796;2022-12-05T11:12:43;17.30;;;12.57;;
55202;SDS011;41077;52.956;6.796;2022-12-05T11:17:45;24.27;;;12.50;;
55202;SDS011;41077;52.956;6.796;2022-12-05T11:22:44;19.40;;;12.48;;
55202;SDS011;41077;52.956;6.796;2022-12-05T11:27:54;17.80;;;11.55;;
55202;SDS011;41077;52.956;6.796;2022-12-05T11:30:26;17.55;;;11.88;;
55202;SDS011;41077;52.956;6.796;2022-12-05T11:33:17;19.65;;;13.23;;
55202;SDS011;41077;52.956;6.796;2022-12-05T11:35:44;18.33;;;12.32;;
55202;SDS011;41077;52.956;6.796;2022-12-05T11:38:11;19.13;;;13.00;;
55202;SDS011;41077;52.956;6.796;2022-12-05T11:46:21;18.23;;;12.38;;
55202;SDS011;41077;52.956;6.796;2022-12-05T11:48:53;17.90;;;11.68;;
55202;SDS011;41077;52.956;6.796;2022-12-05T11:57:10;17.27;;;12.10;;
55202;SDS011;41077;52.956;6.796;2022-12-05T12:03:46;18.17;;;11.82;;
55202;SDS011;41077;52.956;6.796;2022-12-05T12:05:51;19.38;;;11.52;;
55202;SDS011;41077;52.956;6.796;2022-12-05T12:08:22;16.23;;;11.52;;
55202;SDS011;41077;52.956;6.796;2022-12-05T12:13:39;21.55;;;11.13;;
55202;SDS011;41077;52.956;6.796;2022-12-05T12:16:12;17.52;;;10.60;;
55202;SDS011;41077;52.956;6.796;2022-12-05T12:30:14;18.05;;;10.93;;
55202;SDS011;41077;52.956;6.796;2022-12-05T12:32:44;12.85;;;9.15;;
55202;SDS011;41077;52.956;6.796;2022-12-05T12:35:31;11.13;;;9.32;;
55202;SDS011;41077;52.956;6.796;2022-12-05T12:38:19;13.27;;;9.68;;
55202;SDS011;41077;52.956;6.796;2022-12-05T12:41:15;15.77;;;9.20;;
55202;SDS011;41077;52.956;6.796;2022-12-05T12:46:55;12.82;;;9.50;;
55202;SDS011;41077;52.956;6.796;2022-12-05T12:52:04;13.50;;;9.20;;
55202;SDS011;41077;52.956;6.796;2022-12-05T12:57:31;11.38;;;8.27;;
55202;SDS011;41077;52.956;6.796;2022-12-05T13:02:35;12.30;;;10.07;;
55202;SDS011;41077;52.956;6.796;2022-12-05T13:05:30;11.65;;;9.50;;
55202;SDS011;41077;52.956;6.796;2022-12-05T13:08:13;15.82;;;9.32;;
55202;SDS011;41077;52.956;6.796;2022-12-05T13:10:46;15.18;;;9.25;;
55202;SDS011;41077;52.956;6.796;2022-12-05T13:13:23;16.05;;;11.27;;
55202;SDS011;41077;52.956;6.796;2022-12-05T13:15:53;19.70;;;9.77;;
55202;SDS011;41077;52.956;6.796;2022-12-05T13:18:22;13.93;;;9.70;;
55202;SDS011;41077;52.956;6.796;2022-12-05T13:20:51;15.32;;;9.52;;
55202;SDS011;41077;52.956;6.796;2022-12-05T13:23:20;13.27;;;9.18;;
55202;SDS011;41077;52.956;6.796;2022-12-05T13:25:54;11.82;;;9.38;;
55202;SDS011;41077;52.956;6.796;2022-12-05T13:30:52;12.90;;;8.82;;
55202;SDS011;41077;52.956;6.796;2022-12-05T13:33:25;12.68;;;9.68;;
55202;SDS011;41077;52.956;6.796;2022-12-05T13:35:55;10.32;;;8.52;;
55202;SDS011;41077;52.956;6.796;2022-12-05T13:38:45;10.98;;;9.25;;
55202;SDS011;41077;52.956;6.796;2022-12-05T13:41:43;12.27;;;9.15;;
55202;SDS011;41077;52.956;6.796;2022-12-05T13:44:40;11.43;;;9.18;;
55202;SDS011;41077;52.956;6.796;2022-12-05T13:47:24;15.65;;;10.43;;
55202;SDS011;41077;52.956;6.796;2022-12-05T13:49:51;20.52;;;10.27;;
55202;SDS011;41077;52.956;6.796;2022-12-05T13:52:47;12.55;;;9.10;;
55202;SDS011;41077;52.956;6.796;2022-12-05T13:55:28;16.30;;;9.32;;
55202;SDS011;41077;52.956;6.796;2022-12-05T13:57:57;14.65;;;9.57;;
55202;SDS011;41077;52.956;6.796;2022-12-05T14:00:28;13.23;;;9.52;;
55202;SDS011;41077;52.956;6.796;2022-12-05T14:03:17;15.77;;;9.20;;
55202;SDS011;41077;52.956;6.796;2022-12-05T14:06:10;17.08;;;10.30;;
55202;SDS011;41077;52.956;6.796;2022-12-05T14:08:59;15.25;;;9.70;;
55202;SDS011;41077;52.956;6.796;2022-12-05T14:11:25;16.45;;;8.82;;
55202;SDS011;41077;52.956;6.796;2022-12-05T14:13:51;14.95;;;9.13;;
55202;SDS011;41077;52.956;6.796;2022-12-05T14:21:52;11.93;;;9.73;;
55202;SDS011;41077;52.956;6.796;2022-12-05T14:32:24;13.32;;;7.88;;
55202;SDS011;41077;52.956;6.796;2022-12-05T14:40:17;14.27;;;9.45;;
55202;SDS011;41077;52.956;6.796;2022-12-05T14:42:51;19.17;;;9.23;;
55202;SDS011;41077;52.956;6.796;2022-12-05T15:00:56;11.57;;;9.00;;
55202;SDS011;41077;52.956;6.796;2022-12-05T15:03:29;19.92;;;10.70;;
55202;SDS011;41077;52.956;6.796;2022-12-05T15:05:57;16.05;;;10.27;;
55202;SDS011;41077;52.956;6.796;2022-12-05T15:08:25;15.98;;;9.65;;
55202;SDS011;41077;52.956;6.796;2022-12-05T15:10:54;15.32;;;9.35;;
55202;SDS011;41077;52.956;6.796;2022-12-05T15:13:21;16.52;;;9.55;;
55202;SDS011;41077;52.956;6.796;2022-12-05T15:16:11;13.32;;;8.98;;
55202;SDS011;41077;52.956;6.796;2022-12-05T15:18:43;16.42;;;9.75;;
55202;SDS011;41077;52.956;6.796;2022-12-05T15:24:26;11.32;;;8.82;;
55202;SDS011;41077;52.956;6.796;2022-12-05T15:26:46;20.58;;;8.80;;
55202;SDS011;41077;52.956;6.796;2022-12-05T15:29:16;17.50;;;9.45;;
55202;SDS011;41077;52.956;6.796;2022-12-05T15:31:48;15.52;;;9.32;;
55202;SDS011;41077;52.956;6.796;2022-12-05T15:37:21;13.10;;;9.93;;
55202;SDS011;41077;52.956;6.796;2022-12-05T15:45:18;17.55;;;9.07;;
55202;SDS011;41077;52.956;6.796;2022-12-05T15:47:54;10.68;;;7.93;;
55202;SDS011;41077;52.956;6.796;2022-12-05T15:53:01;11.75;;;8.70;;
55202;SDS011;41077;52.956;6.796;2022-12-05T15:55:35;13.18;;;8.68;;
55202;SDS011;41077;52.956;6.796;2022-12-05T16:08:49;13.50;;;8.88;;
55202;SDS011;41077;52.956;6.796;2022-12-05T16:11:16;12.73;;;8.77;;
55202;SDS011;41077;52.956;6.796;2022-12-05T16:13:43;13.93;;;8.50;;
55202;SDS011;41077;52.956;6.796;2022-12-05T16:16:18;14.73;;;8.95;;
55202;SDS011;41077;52.956;6.796;2022-12-05T16:18:48;16.13;;;9.48;;
55202;SDS011;41077;52.956;6.796;2022-12-05T16:21:34;13.70;;;9.00;;
55202;SDS011;41077;52.956;6.796;2022-12-05T16:24:06;13.15;;;9.00;;
55202;SDS011;41077;52.956;6.796;2022-12-05T16:26:38;13.40;;;8.85;;
55202;SDS011;41077;52.956;6.796;2022-12-05T16:29:05;14.20;;;9.82;;
55202;SDS011;41077;52.956;6.796;2022-12-05T16:31:51;13.95;;;9.38;;
55202;SDS011;41077;52.956;6.796;2022-12-05T16:34:19;13.13;;;10.00;;
55202;SDS011;41077;52.956;6.796;2022-12-05T16:36:48;11.82;;;9.13;;
55202;SDS011;41077;52.956;6.796;2022-12-05T16:39:15;13.65;;;9.18;;
55202;SDS011;41077;52.956;6.796;2022-12-05T16:41:41;12.88;;;9.30;;
55202;SDS011;41077;52.956;6.796;2022-12-05T16:46:56;13.13;;;9.43;;
55202;SDS011;41077;52.956;6.796;2022-12-05T16:49:32;16.85;;;9.63;;
55202;SDS011;41077;52.956;6.796;2022-12-05T16:54:35;18.75;;;9.45;;
55202;SDS011;41077;52.956;6.796;2022-12-05T16:57:01;14.63;;;8.52;;
55202;SDS011;41077;52.956;6.796;2022-12-05T16:59:35;15.52;;;9.95;;
55202;SDS011;41077;52.956;6.796;2022-12-05T17:02:03;15.52;;;9.32;;
55202;SDS011;41077;52.956;6.796;2022-12-05T17:04:34;16.30;;;9.32;;
55202;SDS011;41077;52.956;6.796;2022-12-05T17:07:00;14.55;;;10.40;;
55202;SDS011;41077;52.956;6.796;2022-12-05T17:09:25;14.52;;;9.43;;
55202;SDS011;41077;52.956;6.796;2022-12-05T17:11:52;13.68;;;9.10;;
55202;SDS011;41077;52.956;6.796;2022-12-05T17:14:23;12.15;;;9.43;;
55202;SDS011;41077;52.956;6.796;2022-12-05T17:16:49;12.80;;;8.98;;
55202;SDS011;41077;52.956;6.796;2022-12-05T17:19:14;14.00;;;9.95;;
55202;SDS011;41077;52.956;6.796;2022-12-05T17:21:40;14.55;;;9.15;;
55202;SDS011;41077;52.956;6.796;2022-12-05T17:24:09;14.25;;;9.93;;
55202;SDS011;41077;52.956;6.796;2022-12-05T17:26:39;13.45;;;9.75;;
55202;SDS011;41077;52.956;6.796;2022-12-05T17:29:04;18.23;;;10.65;;
55202;SDS011;41077;52.956;6.796;2022-12-05T17:31:30;14.48;;;10.05;;
55202;SDS011;41077;52.956;6.796;2022-12-05T17:33:56;15.68;;;10.57;;
55202;SDS011;41077;52.956;6.796;2022-12-05T17:36:22;14.23;;;10.63;;
55202;SDS011;41077;52.956;6.796;2022-12-05T17:38:48;17.25;;;10.95;;
55202;SDS011;41077;52.956;6.796;2022-12-05T17:41:21;14.73;;;10.25;;